Time;durP1;ratioP1;P1;durP2;ratioP2;P2;SDS_P1;SDS_P2;PMS_P1;PMS_P2;Temp;Humidity;BMP_temperature;BMP_pressure;BME280_temperature;BME280_humidity;BME280_pressure;Samples;Min_cycle;Max_cycle;Signal;HPM_P1;HPM_P2
2024/03/09 00:10:37;;;;;;;38.47;21.85;;;;;;;4.61;100.00;98787.25;4778212;29;20099;-87
2024/03/09 00:13:03;;;;;;;33.25;21.13;;;;;;;4.62;100.00;98786.28;4801854;29;20084;-86
2024/03/09 00:15:34;;;;;;;40.50;22.45;;;;;;;4.69;100.00;98791.75;4840701;29;20140;-86
2024/03/09 00:18:32;;;;;;;35.30;22.13;;;;;;;4.76;100.00;98795.41;4845069;29;20558;-87
2024/03/09 00:29:47;;;;;;;44.05;22.70;;;;;;;4.68;100.00;98771.78;4796828;29;20100;-86
2024/03/09 00:33:06;;;;;;;45.90;23.27;;;;;;;4.68;100.00;98766.56;4798474;29;20142;-86
2024/03/09 00:39:25;;;;;;;38.17;22.27;;;;;;;4.71;100.00;98771.50;4852039;29;20036;-87
2024/03/09 00:59:06;;;;;;;42.65;22.92;;;;;;;4.80;100.00;98765.38;4729058;30;20036;-86
2024/03/09 01:01:35;;;;;;;34.22;21.02;;;;;;;4.90;100.00;98765.31;4754887;30;20515;-86
2024/03/09 01:13:04;;;;;;;36.75;20.52;;;;;;;5.05;100.00;98744.63;4758435;30;20052;-85
2024/03/09 01:19:59;;;;;;;25.67;13.85;;;;;;;5.06;100.00;98727.97;4755014;30;20050;-82
2024/03/09 01:30:09;;;;;;;40.13;22.38;;;;;;;5.06;100.00;98730.59;4780046;29;20042;-84
2024/03/09 01:33:31;;;;;;;34.92;20.48;;;;;;;5.06;100.00;98712.25;4773152;30;20108;-85
2024/03/09 01:48:13;;;;;;;31.60;18.33;;;;;;;5.17;100.00;98705.97;4858341;29;20060;-88
2024/03/09 02:00:08;;;;;;;28.15;16.70;;;;;;;4.92;100.00;98686.63;4835233;29;20427;-86
2024/03/09 02:03:01;;;;;;;28.92;13.90;;;;;;;5.00;100.00;98683.22;4810462;29;20046;-86
2024/03/09 02:22:00;;;;;;;41.20;20.67;;;;;;;4.82;100.00;98666.59;4859958;29;20093;-84
2024/03/09 02:25:52;;;;;;;32.17;19.05;;;;;;;4.84;100.00;98659.38;4862693;29;20499;-85
2024/03/09 02:32:39;;;;;;;32.05;17.20;;;;;;;4.81;100.00;98656.25;4890458;29;20032;-87
2024/03/09 02:39:38;;;;;;;35.00;20.38;;;;;;;4.83;100.00;98644.66;4882880;29;20427;-84
2024/03/09 02:42:13;;;;;;;32.40;16.23;;;;;;;4.74;100.00;98622.00;4864405;29;20044;-89
2024/03/09 02:44:57;;;;;;;27.85;14.35;;;;;;;4.80;100.00;98625.81;4848531;29;20052;-86
2024/03/09 02:47:40;;;;;;;;;;;;;;;;;;;;;
2024/03/09 02:50:56;;;;;;;31.58;18.02;;;;;;;4.83;100.00;98594.09;4816808;29;20778;-84
2024/03/09 02:53:22;;;;;;;33.25;18.15;;;;;;;4.90;100.00;98618.69;4836771;29;20048;-82
2024/03/09 02:55:48;;;;;;;28.55;14.65;;;;;;;4.77;100.00;98626.09;4861762;29;20635;-85
2024/03/09 02:58:17;;;;;;;33.15;18.08;;;;;;;4.78;100.00;98633.00;4860893;29;20047;-84
2024/03/09 03:00:43;;;;;;;35.90;17.98;;;;;;;4.75;100.00;98628.88;4877469;29;20111;-83
2024/03/09 03:06:28;;;;;;;20.10;10.20;;;;;;;4.64;100.00;98622.09;4870070;29;20484;-87
2024/03/09 03:08:57;;;;;;;34.80;16.70;;;;;;;4.75;100.00;98613.16;4862244;29;20117;-83
2024/03/09 03:11:28;;;;;;;19.38;12.38;;;;;;;4.50;100.00;98614.75;4863038;29;20040;-85
2024/03/09 03:14:03;;;;;;;16.98;9.77;;;;;;;4.50;100.00;98612.97;4879616;29;20052;-83
2024/03/09 03:16:40;;;;;;;22.23;12.77;;;;;;;4.46;100.00;98609.00;4879838;29;20400;-82
2024/03/09 03:19:14;;;;;;;27.33;15.05;;;;;;;4.54;100.00;98619.53;4891677;29;20176;-85
2024/03/09 03:21:40;;;;;;;31.33;15.00;;;;;;;4.61;100.00;98622.38;4874955;29;20196;-84
2024/03/09 03:24:18;;;;;;;12.90;8.13;;;;;;;4.51;100.00;98608.59;4872330;29;20048;-83
2024/03/09 03:26:48;;;;;;;21.73;12.13;;;;;;;4.56;100.00;98604.53;4864206;29;20041;-87
2024/03/09 03:29:15;;;;;;;32.08;17.20;;;;;;;4.69;100.00;98604.16;4848177;29;20052;-85
2024/03/09 03:31:45;;;;;;;23.45;13.75;;;;;;;4.59;100.00;98599.00;4850018;29;20052;-86
2024/03/09 03:34:20;;;;;;;21.23;11.27;;;;;;;4.65;100.00;98613.25;4861459;29;20495;-85
2024/03/09 03:36:49;;;;;;;35.22;17.65;;;;;;;4.63;100.00;98602.13;4856507;29;20044;-84
2024/03/09 03:39:15;;;;;;;27.65;15.25;;;;;;;4.67;100.00;98608.69;4876235;29;20037;-85
2024/03/09 03:41:52;;;;;;;25.35;16.42;;;;;;;4.65;100.00;98597.56;4881773;29;20076;-88
2024/03/09 03:44:20;;;;;;;25.83;13.48;;;;;;;4.63;100.00;98593.44;4878890;29;20048;-85
2024/03/09 03:46:49;;;;;;;28.55;16.48;;;;;;;4.74;100.00;98589.75;4880344;29;20517;-85
2024/03/09 03:49:15;;;;;;;32.95;18.13;;;;;;;4.57;100.00;98584.44;4848085;29;20036;-84
2024/03/09 03:51:47;;;;;;;34.75;17.42;;;;;;;4.61;100.00;98588.38;4862639;29;20033;-88
2024/03/09 03:54:28;;;;;;;32.20;16.73;;;;;;;4.58;100.00;98591.28;4865632;29;20037;-87
2024/03/09 03:57:00;;;;;;;32.97;17.90;;;;;;;4.51;100.00;98577.19;4849743;29;20032;-85
2024/03/09 03:59:26;;;;;;;22.70;10.88;;;;;;;4.35;100.00;98581.28;4864763;29;20119;-84
2024/03/09 04:01:52;;;;;;;17.35;7.28;;;;;;;4.27;100.00;98591.69;4861837;29;20071;-83
2024/03/09 04:04:34;;;;;;;26.80;13.43;;;;;;;4.27;100.00;98600.34;4870832;29;20424;-85
2024/03/09 04:08:07;;;;;;;29.50;18.02;;;;;;;4.29;100.00;98585.34;4886623;29;20112;-86
2024/03/09 04:10:42;;;;;;;28.00;17.13;;;;;;;4.39;100.00;98576.59;4861725;29;20036;-86
2024/03/09 04:13:16;;;;;;;32.40;18.60;;;;;;;4.34;100.00;98577.88;4894081;29;20063;-86
2024/03/09 04:15:51;;;;;;;30.67;18.55;;;;;;;4.28;100.00;98578.47;4863388;29;20036;-85
2024/03/09 04:18:30;;;;;;;31.88;16.27;;;;;;;4.39;100.00;98579.19;4859589;29;20048;-89
2024/03/09 04:21:22;;;;;;;41.03;18.10;;;;;;;4.39;100.00;98566.94;4893084;29;20040;-90
2024/03/09 04:24:20;;;;;;;27.60;12.95;;;;;;;4.21;100.00;98567.78;4870821;29;20036;-89
2024/03/09 04:26:50;;;;;;;20.08;11.52;;;;;;;4.20;100.00;98573.16;4872645;29;20044;-85
2024/03/09 04:29:30;;;;;;;30.35;16.17;;;;;;;4.27;100.00;98555.09;4874938;29;20506;-86
2024/03/09 04:31:58;;;;;;;38.20;19.10;;;;;;;4.32;100.00;98563.28;4858924;29;20654;-86
2024/03/09 04:34:33;;;;;;;40.40;19.48;;;;;;;4.34;100.00;98567.41;4870359;29;20068;-85
2024/03/09 04:37:00;;;;;;;41.63;19.67;;;;;;;4.36;100.00;98561.19;4853359;29;20048;-85
2024/03/09 04:39:43;;;;;;;34.45;19.27;;;;;;;4.41;100.00;98561.56;4879150;29;20033;-85
2024/03/09 04:42:09;;;;;;;32.92;18.40;;;;;;;4.36;100.00;98556.78;4875973;29;20468;-85
2024/03/09 04:44:36;;;;;;;27.30;13.88;;;;;;;4.26;100.00;98549.03;4861927;29;20088;-85
2024/03/09 04:47:03;;;;;;;37.30;16.80;;;;;;;4.27;100.00;98561.13;4886509;29;20124;-86
2024/03/09 04:49:29;;;;;;;35.97;19.23;;;;;;;4.33;100.00;98547.44;4848592;29;20056;-86
2024/03/09 04:51:59;;;;;;;37.30;18.08;;;;;;;4.46;100.00;98549.66;4878554;29;20384;-86
2024/03/09 04:54:25;;;;;;;39.20;21.48;;;;;;;4.47;100.00;98540.84;4861433;29;20083;-87
2024/03/09 04:56:52;;;;;;;36.88;20.55;;;;;;;4.42;100.00;98530.03;4858127;29;20075;-87
2024/03/09 04:59:23;;;;;;;42.53;23.05;;;;;;;4.49;100.00;98530.22;4866125;29;20041;-86
2024/03/09 05:01:54;;;;;;;28.63;16.02;;;;;;;4.46;100.00;98522.66;4851972;29;20071;-86
2024/03/09 05:04:19;;;;;;;32.70;17.30;;;;;;;4.44;100.00;98522.03;4894790;29;20043;-86
2024/03/09 05:06:45;;;;;;;35.60;20.83;;;;;;;4.42;100.00;98516.13;4862370;29;20040;-85
2024/03/09 05:09:15;;;;;;;37.28;19.92;;;;;;;4.43;100.00;98515.97;4845249;29;20065;-86
2024/03/09 05:11:44;;;;;;;38.42;21.60;;;;;;;4.45;100.00;98514.03;4843764;29;20047;-84
2024/03/09 05:14:11;;;;;;;36.65;19.45;;;;;;;4.56;100.00;98509.50;4847542;29;20076;-87
2024/03/09 05:16:43;;;;;;;38.65;24.25;;;;;;;4.60;100.00;98505.63;4860314;29;20111;-86
2024/03/09 05:19:09;;;;;;;19.50;10.18;;;;;;;4.45;100.00;98500.09;4849516;29;20036;-86
2024/03/09 05:21:36;;;;;;;42.13;23.52;;;;;;;4.61;100.00;98494.16;4879902;29;20507;-85
2024/03/09 05:24:04;;;;;;;36.17;20.10;;;;;;;4.65;100.00;98486.84;4848271;29;20124;-87
2024/03/09 05:26:32;;;;;;;34.83;17.65;;;;;;;4.64;100.00;98490.41;4887435;29;20179;-86
2024/03/09 05:28:58;;;;;;;45.20;25.88;;;;;;;4.65;100.00;98489.47;4868326;29;20044;-86
2024/03/09 05:31:30;;;;;;;39.60;23.63;;;;;;;4.69;100.00;98496.00;4849426;29;20048;-86
2024/03/09 05:33:56;;;;;;;43.13;25.15;;;;;;;4.65;100.00;98487.63;4875566;29;20116;-88
2024/03/09 05:36:23;;;;;;;43.25;24.15;;;;;;;4.63;100.00;98476.53;4848008;29;20051;-84
2024/03/09 05:38:52;;;;;;;47.88;28.27;;;;;;;4.72;100.00;98485.22;4865845;29;20036;-85
2024/03/09 05:41:19;;;;;;;45.97;25.98;;;;;;;4.75;100.00;98489.31;4847561;29;20044;-84
2024/03/09 05:43:47;;;;;;;51.53;28.65;;;;;;;4.80;100.00;98479.22;4893479;29;20033;-86
2024/03/09 05:46:19;;;;;;;52.30;29.05;;;;;;;4.81;100.00;98500.00;4878433;29;20104;-87
2024/03/09 05:49:14;;;;;;;54.42;28.95;;;;;;;4.91;100.00;98493.84;4865966;29;20041;-86
2024/03/09 05:51:47;;;;;;;35.20;20.33;;;;;;;4.84;100.00;98477.94;4865286;29;20503;-85
2024/03/09 05:54:24;;;;;;;47.22;27.42;;;;;;;4.97;100.00;98478.31;4848757;29;20043;-85
2024/03/09 05:56:58;;;;;;;49.75;27.17;;;;;;;5.03;100.00;98479.47;4861990;29;20032;-84
2024/03/09 05:59:26;;;;;;;24.27;15.25;;;;;;;5.01;100.00;98481.47;4875163;29;20095;-84
2024/03/09 06:01:58;;;;;;;43.50;24.80;;;;;;;5.08;100.00;98469.38;4859732;29;20476;-85
2024/03/09 06:04:33;;;;;;;33.28;18.67;;;;;;;5.08;100.00;98466.75;4890248;29;20095;-86
2024/03/09 06:07:01;;;;;;;37.15;19.58;;;;;;;5.03;100.00;98449.88;4859547;29;20044;-84
2024/03/09 06:09:27;;;;;;;52.22;29.67;;;;;;;5.11;100.00;98468.25;4856283;29;20060;-85
2024/03/09 06:11:55;;;;;;;29.08;15.50;;;;;;;5.13;100.00;98457.63;4861389;29;20068;-85
2024/03/09 06:14:20;;;;;;;23.33;9.32;;;;;;;5.06;100.00;98455.63;4861460;29;20247;-82
2024/03/09 06:16:49;;;;;;;28.17;13.48;;;;;;;5.02;100.00;98454.28;4858278;29;20041;-88
2024/03/09 06:19:14;;;;;;;30.90;17.35;;;;;;;5.05;100.00;98463.63;4856743;29;20448;-86
2024/03/09 06:22:07;;;;;;;42.22;25.73;;;;;;;5.19;100.00;98454.34;4884920;29;20052;-85
2024/03/09 06:24:35;;;;;;;37.15;22.27;;;;;;;5.10;100.00;98471.81;4862445;29;20571;-85
2024/03/09 06:27:15;;;;;;;45.15;20.00;;;;;;;5.06;100.00;98465.28;4858720;29;20052;-87
2024/03/09 06:29:49;;;;;;;52.65;27.73;;;;;;;5.14;100.00;98467.09;4847720;29;20043;-85
2024/03/09 06:32:15;;;;;;;45.35;24.65;;;;;;;5.13;100.00;98468.88;4846332;29;20795;-86
2024/03/09 06:34:43;;;;;;;52.95;27.55;;;;;;;5.18;100.00;98471.03;4861058;29;20083;-84
2024/03/09 06:37:11;;;;;;;64.45;34.08;;;;;;;5.30;100.00;98459.28;4863216;29;20049;-86
2024/03/09 06:39:38;;;;;;;49.50;26.23;;;;;;;5.19;100.00;98473.50;4859596;29;20036;-84
2024/03/09 06:42:10;;;;;;;37.47;19.63;;;;;;;5.27;100.00;98474.50;4843484;29;20043;-90
2024/03/09 06:44:39;;;;;;;44.95;26.35;;;;;;;5.25;100.00;98471.22;4891015;29;20040;-85
2024/03/09 06:47:06;;;;;;;26.48;14.90;;;;;;;5.27;100.00;98466.66;4876039;29;20032;-85
2024/03/09 06:50:04;;;;;;;38.92;20.02;;;;;;;5.25;100.00;98473.84;4838868;29;20049;-85
2024/03/09 06:52:37;;;;;;;28.85;16.25;;;;;;;5.21;100.00;98486.44;4817409;29;20103;-83
2024/03/09 06:55:25;;;;;;;53.40;28.55;;;;;;;5.26;100.00;98489.41;4845336;29;20101;-83
2024/03/09 06:58:01;;;;;;;40.65;22.30;;;;;;;5.15;100.00;98472.19;4825239;29;20050;-84
2024/03/09 07:00:34;;;;;;;53.65;27.20;;;;;;;5.23;100.00;98466.16;4837504;29;20045;-84
2024/03/09 07:03:09;;;;;;;46.95;25.13;;;;;;;5.31;100.00;98476.66;4835817;29;20038;-86
2024/03/09 07:05:47;;;;;;;38.30;18.80;;;;;;;5.23;100.00;98474.00;4824368;29;20045;-88
2024/03/09 07:08:16;;;;;;;38.60;14.77;;;;;;;5.16;100.00;98473.00;4829238;29;20045;-86
2024/03/09 07:10:47;;;;;;;53.58;27.83;;;;;;;5.37;100.00;98471.78;4827826;29;20101;-87
2024/03/09 07:13:18;;;;;;;23.85;14.05;;;;;;;5.29;100.00;98481.22;4827373;29;20515;-87
2024/03/09 07:15:48;;;;;;;55.10;30.58;;;;;;;5.46;100.00;98476.84;4823019;29;20203;-84
2024/03/09 07:18:16;;;;;;;58.08;31.52;;;;;;;5.39;100.00;98485.50;4824860;29;20439;-84
2024/03/09 07:20:59;;;;;;;55.35;32.47;;;;;;;5.42;100.00;98478.16;4817529;29;20042;-91
2024/03/09 07:23:31;;;;;;;53.35;30.67;;;;;;;5.37;100.00;98479.63;4830294;29;20485;-86
2024/03/09 07:26:00;;;;;;;56.38;28.38;;;;;;;5.44;100.00;98478.00;4807775;29;20064;-87
2024/03/09 07:28:36;;;;;;;49.65;25.60;;;;;;;5.39;100.00;98486.34;4882575;29;20041;-85
2024/03/09 07:31:03;;;;;;;;;;;;;;;5.43;100.00;98479.78;4869912;29;20041;-83
2024/03/09 07:33:38;;;;;;;42.05;17.98;;;;;;;5.27;100.00;98488.41;4875260;29;19926;-87
2024/03/09 07:36:05;;;;;;;58.17;30.65;;;;;;;5.36;100.00;98477.97;4894948;29;20088;-85
2024/03/09 07:38:33;;;;;;;59.83;31.13;;;;;;;5.42;100.00;98479.94;4848560;29;20495;-87
2024/03/09 07:41:01;;;;;;;37.90;21.40;;;;;;;5.29;100.00;98491.69;4869457;29;20095;-84
2024/03/09 07:43:53;;;;;;;63.75;32.88;;;;;;;5.35;100.00;98487.66;4844970;29;20041;-84
2024/03/09 07:46:22;;;;;;;34.85;19.13;;;;;;;5.34;100.00;98486.81;4844111;29;20195;-86
2024/03/09 07:48:50;;;;;;;49.60;27.98;;;;;;;5.38;100.00;98471.59;4861079;29;20097;-88
2024/03/09 07:51:28;;;;;;;56.15;33.97;;;;;;;5.39;100.00;98462.75;4879852;29;20044;-87
2024/03/09 07:54:01;;;;;;;43.63;23.23;;;;;;;5.37;100.00;98456.06;4862006;29;20100;-86
2024/03/09 07:56:27;;;;;;;45.00;26.52;;;;;;;5.43;100.00;98460.66;4883788;29;20032;-85
2024/03/09 07:58:53;;;;;;;41.58;22.45;;;;;;;5.33;100.00;98469.47;4880017;29;20487;-85
2024/03/09 08:01:21;;;;;;;32.03;18.05;;;;;;;5.40;100.00;98464.38;4862077;29;20175;-87
2024/03/09 08:03:48;;;;;;;57.78;29.40;;;;;;;5.38;100.00;98474.22;4874454;29;20089;-86
2024/03/09 08:06:18;;;;;;;41.90;22.02;;;;;;;5.50;100.00;98489.63;4861302;29;20623;-85
2024/03/09 08:08:44;;;;;;;58.80;34.22;;;;;;;5.41;100.00;98471.28;4860061;29;20044;-85
2024/03/09 08:11:12;;;;;;;34.53;20.42;;;;;;;5.31;100.00;98483.69;4866947;29;20043;-87
2024/03/09 08:13:38;;;;;;;45.47;24.60;;;;;;;5.41;100.00;98478.31;4876286;29;20092;-86
2024/03/09 08:16:04;;;;;;;43.08;23.67;;;;;;;5.51;100.00;98476.38;4859173;29;20083;-85
2024/03/09 08:18:31;;;;;;;26.73;15.75;;;;;;;5.38;100.00;98470.78;4877855;29;20460;-89
2024/03/09 08:21:02;;;;;;;36.78;20.52;;;;;;;5.28;100.00;98473.53;4864205;29;20052;-85
2024/03/09 08:23:28;;;;;;;63.05;34.55;;;;;;;5.47;100.00;98461.94;4878567;29;20032;-85
2024/03/09 08:25:54;;;;;;;51.83;29.98;;;;;;;5.45;100.00;98471.75;4863405;29;20071;-83
2024/03/09 08:28:20;;;;;;;54.03;28.42;;;;;;;5.53;100.00;98463.09;4866921;29;20185;-87
2024/03/09 08:31:08;;;;;;;60.92;33.63;;;;;;;5.67;100.00;98453.81;4861699;29;20043;-88
2024/03/09 08:33:51;;;;;;;36.75;20.60;;;;;;;5.57;100.00;98448.72;4864746;29;20068;-85
2024/03/09 08:36:23;;;;;;;47.75;26.27;;;;;;;5.63;100.00;98447.22;4860049;29;20040;-86
2024/03/09 08:38:58;;;;;;;52.53;27.42;;;;;;;5.62;100.00;98451.69;4861417;29;20119;-84
2024/03/09 08:41:27;;;;;;;49.85;27.33;;;;;;;5.58;100.00;98453.78;4875007;29;20652;-83
2024/03/09 08:43:53;;;;;;;54.50;29.95;;;;;;;5.61;100.00;98441.31;4849858;29;20506;-88
2024/03/09 08:47:16;;;;;;;54.17;27.67;;;;;;;5.56;100.00;98439.19;4861600;29;20036;-85
2024/03/09 08:49:53;;;;;;;61.28;30.75;;;;;;;5.63;100.00;98449.84;4869158;29;20575;-85
2024/03/09 08:52:45;;;;;;;47.67;24.30;;;;;;;5.56;100.00;98455.75;4865140;29;20091;-83
2024/03/09 08:55:21;;;;;;;50.92;27.42;;;;;;;5.42;100.00;98458.97;4868880;29;20076;-86
2024/03/09 08:57:53;;;;;;;45.47;26.58;;;;;;;5.50;100.00;98440.66;4892413;29;20032;-87
2024/03/09 09:00:25;;;;;;;31.40;19.92;;;;;;;5.57;100.00;98452.13;4849322;29;20510;-85
2024/03/09 09:02:56;;;;;;;45.80;24.20;;;;;;;5.64;100.00;98446.28;4874512;29;20052;-85
2024/03/09 09:05:22;;;;;;;50.35;26.95;;;;;;;5.63;100.00;98457.72;4854282;29;20044;-85
2024/03/09 09:07:54;;;;;;;51.42;28.58;;;;;;;5.74;100.00;98454.78;4897308;29;20044;-86
2024/03/09 09:10:22;;;;;;;56.40;29.63;;;;;;;5.65;100.00;98440.88;4841385;29;20045;-84
2024/03/09 09:12:50;;;;;;;50.47;26.90;;;;;;;5.69;100.00;98446.59;4864017;29;20134;-88
2024/03/09 09:15:27;;;;;;;58.58;31.98;;;;;;;5.66;100.00;98445.13;4863504;29;20788;-83
2024/03/09 09:17:58;;;;;;;56.00;29.58;;;;;;;5.64;100.00;98443.66;4847736;29;20037;-81
2024/03/09 09:20:55;;;;;;;56.25;32.45;;;;;;;5.73;100.00;98454.94;4865939;29;20120;-87
2024/03/09 09:23:33;;;;;;;47.75;24.73;;;;;;;5.75;100.00;98445.13;4859016;29;20419;-85
2024/03/09 09:29:16;;;;;;;43.47;20.85;;;;;;;5.65;100.00;98443.50;4881859;29;20041;-87
2024/03/09 09:32:04;;;;;;;52.72;28.83;;;;;;;5.56;100.00;98431.31;4874172;29;20513;-87
2024/03/09 09:34:33;;;;;;;29.75;16.10;;;;;;;5.52;100.00;98464.91;4876955;29;20056;-84
2024/03/09 09:36:59;;;;;;;53.85;28.10;;;;;;;5.62;100.00;98443.81;4877445;29;20039;-86
2024/03/09 09:39:33;;;;;;;49.53;26.67;;;;;;;5.62;100.00;98437.75;4861700;29;20041;-83
2024/03/09 09:42:04;;;;;;;46.25;24.27;;;;;;;5.75;100.00;98434.66;4861635;29;20703;-88
2024/03/09 09:44:38;;;;;;;57.50;28.70;;;;;;;5.75;100.00;98438.06;4850489;29;20119;-87
2024/03/09 09:47:05;;;;;;;48.33;23.92;;;;;;;5.75;100.00;98440.69;4850550;29;20028;-84
2024/03/09 09:49:34;;;;;;;47.60;26.75;;;;;;;5.80;100.00;98438.41;4862003;29;20044;-86
2024/03/09 09:52:03;;;;;;;52.72;27.80;;;;;;;5.85;100.00;98440.53;4876490;29;20539;-88
2024/03/09 09:55:26;;;;;;;48.20;29.83;;;;;;;5.85;100.00;98435.28;4846664;29;20123;-86
2024/03/09 09:58:16;;;;;;;58.13;28.23;;;;;;;5.69;100.00;98430.84;4866869;29;20047;-85
2024/03/09 10:00:45;;;;;;;55.90;26.42;;;;;;;5.82;100.00;98438.25;4862023;29;20730;-87
2024/03/09 10:03:11;;;;;;;53.28;26.35;;;;;;;5.75;100.00;98432.03;4878586;29;20036;-85
2024/03/09 10:05:39;;;;;;;55.08;27.38;;;;;;;5.85;100.00;98435.28;4879862;29;20041;-85
2024/03/09 10:08:09;;;;;;;44.22;23.90;;;;;;;5.82;100.00;98423.34;4862967;29;20441;-82
2024/03/09 10:11:15;;;;;;;41.97;21.77;;;;;;;5.66;100.00;98444.28;4881251;29;20061;-86
2024/03/09 10:14:00;;;;;;;31.88;16.67;;;;;;;5.64;100.00;98427.94;4880363;29;20064;-86
2024/03/09 10:16:39;;;;;;;42.70;24.90;;;;;;;5.75;100.00;98418.91;4863117;29;20140;-83
2024/03/09 10:19:10;;;;;;;43.28;24.48;;;;;;;5.71;100.00;98429.72;4892512;29;20037;-87
2024/03/09 10:21:48;;;;;;;49.25;28.27;;;;;;;5.72;100.00;98433.16;4879835;29;20128;-85
2024/03/09 10:24:18;;;;;;;43.75;24.83;;;;;;;5.81;100.00;98413.03;4863900;29;20115;-86
2024/03/09 10:27:10;;;;;;;40.22;20.50;;;;;;;5.80;100.00;98424.47;4882106;29;20032;-81
2024/03/09 10:30:12;;;;;;;47.92;22.80;;;;;;;5.88;100.00;98418.41;4880165;29;20032;-86
2024/03/09 10:32:41;;;;;;;44.90;25.30;;;;;;;5.96;100.00;98405.28;4876861;29;20145;-85
2024/03/09 10:35:10;;;;;;;58.25;27.65;;;;;;;5.96;100.00;98413.16;4865332;29;20063;-84
2024/03/09 10:37:59;;;;;;;35.15;18.63;;;;;;;5.81;100.00;98423.50;4882306;29;20032;-84
2024/03/09 10:40:32;;;;;;;33.85;18.17;;;;;;;5.75;100.00;98416.28;4882001;29;20136;-87
2024/03/09 10:43:02;;;;;;;40.97;24.10;;;;;;;5.87;100.00;98414.16;4881583;29;20047;-84
2024/03/09 10:45:33;;;;;;;59.17;30.45;;;;;;;5.90;100.00;98413.81;4879134;29;20033;-83
2024/03/09 10:48:09;;;;;;;34.38;20.80;;;;;;;5.88;100.00;98421.03;4855230;29;20056;-89
2024/03/09 10:51:14;;;;;;;51.47;29.63;;;;;;;5.95;100.00;98411.53;4895423;29;20107;-85
2024/03/09 10:53:55;;;;;;;36.35;21.80;;;;;;;5.92;100.00;98390.88;4855958;29;20065;-85
2024/03/09 10:56:24;;;;;;;32.72;20.63;;;;;;;5.96;100.00;98415.78;4863811;29;20818;-83
2024/03/09 10:58:51;;;;;;;52.17;27.58;;;;;;;5.92;100.00;98414.50;4867081;29;20059;-84
2024/03/09 11:01:39;;;;;;;44.70;23.50;;;;;;;5.98;100.00;98405.13;4876818;29;20047;-84
2024/03/09 11:04:09;;;;;;;41.58;22.98;;;;;;;5.89;100.00;98393.84;4862554;29;20512;-83
2024/03/09 11:06:35;;;;;;;59.92;31.48;;;;;;;5.87;100.00;98404.50;4876349;29;20044;-84
2024/03/09 11:09:06;;;;;;;54.42;26.92;;;;;;;5.98;100.00;98394.66;4857878;29;20056;-84
2024/03/09 11:11:32;;;;;;;49.58;26.13;;;;;;;6.03;100.00;98395.81;4898132;29;20040;-83
2024/03/09 11:14:25;;;;;;;56.45;29.27;;;;;;;6.13;100.00;98400.88;4880371;29;20525;-85
2024/03/09 11:16:57;;;;;;;48.17;26.30;;;;;;;6.11;100.00;98394.16;4863290;29;20044;-83
2024/03/09 11:19:26;;;;;;;50.65;26.40;;;;;;;6.13;100.00;98416.63;4890521;29;20092;-82
2024/03/09 11:21:53;;;;;;;44.25;21.48;;;;;;;6.12;100.00;98396.63;4845489;29;20057;-84
2024/03/09 11:24:29;;;;;;;41.92;19.80;;;;;;;6.12;100.00;98401.03;4860439;29;20071;-84
2024/03/09 11:27:30;;;;;;;42.00;24.92;;;;;;;6.18;100.00;98398.59;4869172;29;20040;-85
2024/03/09 11:29:59;;;;;;;50.67;25.45;;;;;;;6.05;100.00;98396.47;4875616;29;20033;-84
2024/03/09 11:32:28;;;;;;;57.10;30.10;;;;;;;6.04;100.00;98392.22;4861072;29;20059;-84
2024/03/09 11:35:27;;;;;;;48.20;24.08;;;;;;;6.12;100.00;98394.00;4864594;29;20036;-83
2024/03/09 11:37:56;;;;;;;52.92;27.38;;;;;;;6.11;100.00;98391.53;4862572;29;20055;-84
2024/03/09 11:40:25;;;;;;;53.30;30.40;;;;;;;6.32;100.00;98383.97;4862571;29;20615;-83
2024/03/09 11:42:59;;;;;;;32.42;17.63;;;;;;;6.23;100.00;98386.78;4894713;29;20040;-86
2024/03/09 11:45:29;;;;;;;54.00;29.45;;;;;;;6.33;100.00;98390.88;4848803;29;20056;-84
2024/03/09 11:47:58;;;;;;;53.30;27.73;;;;;;;6.37;100.00;98401.03;4863539;29;20040;-85
2024/03/09 11:50:27;;;;;;;50.45;29.67;;;;;;;6.19;100.00;98391.53;4857910;29;20097;-84
2024/03/09 11:52:55;;;;;;;52.33;26.00;;;;;;;6.35;100.00;98390.69;4853871;29;20049;-84
2024/03/09 11:55:21;;;;;;;52.10;28.70;;;;;;;6.28;100.00;98390.53;4844638;29;20041;-85
2024/03/09 11:57:53;;;;;;;33.33;16.02;;;;;;;6.24;100.00;98410.22;4863113;29;20369;-84
2024/03/09 12:00:19;;;;;;;68.05;32.78;;;;;;;6.24;100.00;98396.28;4819252;29;20039;-83
2024/03/09 12:02:54;;;;;;;41.58;22.45;;;;;;;6.13;100.00;98400.06;4862648;29;20032;-84
2024/03/09 12:05:20;;;;;;;49.88;23.92;;;;;;;6.30;100.00;98390.38;4860590;29;20041;-83
2024/03/09 12:07:49;;;;;;;56.90;28.95;;;;;;;6.36;100.00;98394.13;4859745;29;20033;-84
2024/03/09 12:10:15;;;;;;;63.55;33.03;;;;;;;6.31;100.00;98390.19;4846604;29;20041;-85
2024/03/09 12:12:43;;;;;;;57.17;30.92;;;;;;;6.33;100.00;98380.38;4878258;29;20037;-84
2024/03/09 12:15:12;;;;;;;60.88;31.75;;;;;;;6.41;100.00;98381.31;4864983;29;20086;-84
2024/03/09 12:17:42;;;;;;;55.78;27.02;;;;;;;6.34;100.00;98381.16;4861838;29;20036;-84
2024/03/09 12:20:40;;;;;;;;;;;;;;;;;;;;;
2024/03/09 12:23:10;;;;;;;54.60;28.77;;;;;;;6.30;100.00;98396.44;4873208;29;20037;-88
2024/03/09 12:25:38;;;;;;;39.35;20.00;;;;;;;6.17;100.00;98386.47;4847840;29;20040;-84
2024/03/09 12:28:27;;;;;;;44.60;25.88;;;;;;;6.37;100.00;98382.66;4844044;29;20040;-87
2024/03/09 12:31:42;;;;;;;56.00;26.13;;;;;;;6.37;100.00;98378.19;4888982;29;20092;-85
2024/03/09 12:34:24;;;;;;;56.92;30.42;;;;;;;6.28;100.00;98379.22;4842852;29;20048;-85
2024/03/09 12:37:00;;;;;;;42.40;22.33;;;;;;;6.26;100.00;98394.31;4877957;29;20527;-84
2024/03/09 12:39:46;;;;;;;55.90;29.42;;;;;;;6.21;100.00;98371.22;4857685;29;20051;-84
2024/03/09 12:42:18;;;;;;;60.33;29.35;;;;;;;6.20;100.00;98382.69;4846802;29;20043;-84
2024/03/09 12:44:52;;;;;;;42.17;22.08;;;;;;;6.30;100.00;98391.19;4882048;29;20049;-85
2024/03/09 12:47:28;;;;;;;44.35;22.50;;;;;;;6.22;100.00;98359.72;4878868;29;20103;-82
2024/03/09 12:49:54;;;;;;;30.42;19.00;;;;;;;6.22;100.00;98358.91;4872443;29;20092;-85
2024/03/09 12:52:22;;;;;;;49.10;24.30;;;;;;;6.29;100.00;98370.38;4838202;29;20487;-83
2024/03/09 12:54:48;;;;;;;47.08;27.30;;;;;;;6.28;100.00;98360.84;4860917;29;20036;-87
2024/03/09 12:57:23;;;;;;;47.50;27.58;;;;;;;6.30;100.00;98357.09;4813962;29;20060;-86
2024/03/09 12:59:51;;;;;;;48.45;27.80;;;;;;;6.37;100.00;98356.41;4854313;29;20972;-84
2024/03/09 13:02:22;;;;;;;41.80;24.30;;;;;;;6.40;100.00;98349.00;4877406;29;20040;-85
2024/03/09 13:04:57;;;;;;;39.00;22.33;;;;;;;6.41;100.00;98347.22;4869316;29;20032;-85
2024/03/09 13:07:39;;;;;;;46.40;27.05;;;;;;;6.47;100.00;98346.53;4859939;29;20041;-85
2024/03/09 13:10:32;;;;;;;42.38;22.92;;;;;;;6.54;100.00;98346.66;4845134;29;20033;-85
2024/03/09 13:13:16;;;;;;;47.30;27.60;;;;;;;6.56;100.00;98339.44;4858876;29;20051;-85
2024/03/09 13:15:52;;;;;;;44.63;27.58;;;;;;;6.60;100.00;98363.53;4876652;29;20056;-86
2024/03/09 13:18:22;;;;;;;42.00;23.92;;;;;;;6.56;100.00;98348.13;4858585;29;20064;-85
2024/03/09 13:20:51;;;;;;;48.97;28.42;;;;;;;6.66;100.00;98361.06;4869350;29;20503;-88
2024/03/09 13:23:22;;;;;;;40.55;23.05;;;;;;;6.71;100.00;98355.28;4842820;29;20407;-86
2024/03/09 13:25:49;;;;;;;40.65;23.10;;;;;;;6.65;100.00;98334.97;4862818;29;20033;-87
2024/03/09 13:29:13;;;;;;;39.40;21.90;;;;;;;6.68;100.00;98337.25;4845155;29;20808;-88
2024/03/09 13:31:41;;;;;;;44.53;22.15;;;;;;;6.60;100.00;98337.28;4857339;29;20048;-84
2024/03/09 13:34:12;;;;;;;49.88;29.05;;;;;;;6.67;100.00;98333.00;4875999;29;20036;-85
2024/03/09 13:36:42;;;;;;;50.38;23.05;;;;;;;6.78;100.00;98329.16;4861084;29;20045;-85
2024/03/09 13:39:26;;;;;;;37.83;22.23;;;;;;;6.61;100.00;98333.69;4848332;29;20036;-84
2024/03/09 13:41:56;;;;;;;44.55;24.23;;;;;;;6.75;100.00;98329.53;4860748;29;20075;-86
2024/03/09 13:44:45;;;;;;;35.97;21.77;;;;;;;6.71;100.00;98331.66;4888682;29;20127;-86
2024/03/09 13:47:39;;;;;;;54.20;27.27;;;;;;;6.88;100.00;98321.88;4870690;29;20076;-85